Time;durP1;ratioP1;P1;durP2;ratioP2;P2;SDS_P1;SDS_P2;PMS_P1;PMS_P2;Temp;Humidity;BMP_temperature;BMP_pressure;BME280_temperature;BME280_humidity;BME280_pressure;Samples;Min_cycle;Max_cycle;Signal;HPM_P1;HPM_P2
2022/01/23 00:00:18;;;;;;;41.43;27.97;;;7.80;99.90;;;;;;5036523;28;20261;-69
2022/01/23 00:02:46;;;;;;;40.30;27.93;;;7.80;99.90;;;;;;5036207;28;20162;-70
2022/01/23 00:05:11;;;;;;;41.73;28.53;;;7.60;99.90;;;;;;5036108;28;20180;-70
2022/01/23 00:07:39;;;;;;;41.20;28.47;;;7.40;99.90;;;;;;5036022;28;20177;-70
2022/01/23 00:10:05;;;;;;;44.23;30.00;;;7.30;99.90;;;;;;5036258;28;20173;-70
2022/01/23 00:12:36;;;;;;;42.50;29.13;;;7.40;99.90;;;;;;5036026;28;20236;-69
2022/01/23 00:17:46;;;;;;;48.17;30.63;;;7.40;99.90;;;;;;5036226;28;20181;-69
2022/01/23 00:20:12;;;;;;;45.90;29.40;;;7.30;99.90;;;;;;5035637;28;20629;-69
2022/01/23 00:22:45;;;;;;;42.37;28.73;;;7.30;99.90;;;;;;5036174;28;20184;-70
2022/01/23 00:30:43;;;;;;;40.93;28.73;;;7.60;99.90;;;;;;5036059;28;20534;-70
2022/01/23 00:33:10;;;;;;;42.30;29.40;;;7.70;99.90;;;;;;5035428;28;20728;-70
2022/01/23 00:35:37;;;;;;;45.83;29.50;;;7.70;99.90;;;;;;5035760;28;20186;-69
2022/01/23 00:38:05;;;;;;;40.47;28.10;;;7.60;99.90;;;;;;5035688;28;20173;-69
2022/01/23 00:40:34;;;;;;;42.50;29.07;;;7.70;99.90;;;;;;5035618;28;20182;-70
2022/01/23 00:43:01;;;;;;;42.47;29.23;;;7.70;99.90;;;;;;5035744;28;20166;-69
2022/01/23 00:45:41;;;;;;;41.80;27.73;;;7.80;99.90;;;;;;5035607;28;20220;-69
2022/01/23 00:48:09;;;;;;;42.97;27.50;;;7.80;99.90;;;;;;5034920;28;20205;-69
2022/01/23 00:50:37;;;;;;;39.70;26.20;;;7.70;99.90;;;;;;5035663;28;20174;-70
2022/01/23 00:53:08;;;;;;;39.43;26.87;;;7.50;99.90;;;;;;5034382;28;20261;-69
2022/01/23 00:55:34;;;;;;;40.83;27.27;;;7.50;99.90;;;;;;5035317;28;20169;-69
2022/01/23 00:57:59;;;;;;;38.63;26.37;;;7.60;99.90;;;;;;5035101;28;20528;-69
2022/01/23 01:00:25;;;;;;;41.57;27.03;;;7.70;99.90;;;;;;5035064;28;20182;-69
2022/01/23 01:02:51;;;;;;;41.77;27.17;;;7.70;99.90;;;;;;5034921;28;20174;-69
2022/01/23 01:05:17;;;;;;;42.07;27.47;;;7.70;99.90;;;;;;5034240;28;20336;-69
2022/01/23 01:07:43;;;;;;;43.73;27.87;;;7.70;99.90;;;;;;5034930;28;20616;-70
2022/01/23 01:10:17;;;;;;;42.70;28.47;;;7.80;99.90;;;;;;5035088;28;20182;-69
2022/01/23 01:12:45;;;;;;;39.23;26.97;;;7.70;99.90;;;;;;5033976;28;20520;-68
2022/01/23 01:31:23;;;;;;;42.53;28.27;;;7.50;99.90;;;;;;5034382;28;20261;-68
2022/01/23 01:33:54;;;;;;;44.27;28.37;;;7.70;99.90;;;;;;5033362;28;20267;-69
2022/01/23 01:38:46;;;;;;;39.67;28.03;;;7.50;99.90;;;;;;5033546;28;20188;-69
2022/01/23 01:41:13;;;;;;;46.70;28.60;;;7.50;99.90;;;;;;5034645;28;20185;-69
2022/01/23 01:43:39;;;;;;;44.20;28.43;;;7.50;99.90;;;;;;5034280;28;20221;-70
2022/01/23 01:46:04;;;;;;;41.27;28.13;;;7.60;99.90;;;;;;5033735;28;20201;-69
2022/01/23 01:48:30;;;;;;;42.83;27.63;;;7.60;99.90;;;;;;5034207;28;20289;-70
2022/01/23 01:50:56;;;;;;;41.47;28.10;;;7.60;99.90;;;;;;5034294;28;20210;-70
2022/01/23 01:53:23;;;;;;;43.70;28.90;;;7.70;99.90;;;;;;5034387;28;20638;-70
2022/01/23 01:55:52;;;;;;;44.17;28.97;;;7.60;99.90;;;;;;5034093;28;20189;-70
2022/01/23 02:01:03;;;;;;;44.80;28.87;;;7.70;99.90;;;;;;5033708;28;20169;-70
2022/01/23 02:09:09;;;;;;;44.17;29.20;;;7.60;99.90;;;;;;5033696;28;20570;-70
2022/01/23 02:12:01;;;;;;;44.83;29.30;;;7.60;99.90;;;;;;5033772;28;20176;-69
2022/01/23 02:17:13;;;;;;;49.30;30.67;;;7.50;99.90;;;;;;5033470;28;20190;-69
2022/01/23 02:22:47;;;;;;;51.17;33.37;;;7.50;99.90;;;;;;5034223;28;20168;-70
2022/01/23 02:52:55;;;;;;;56.17;34.03;;;7.20;99.90;;;;;;5033671;28;20223;-69
2022/01/23 02:55:27;;;;;;;61.03;34.73;;;7.20;99.90;;;;;;5033174;28;20170;-69
2022/01/23 02:57:57;;;;;;;56.47;34.53;;;7.20;99.90;;;;;;5032796;28;20172;-69
2022/01/23 03:00:32;;;;;;;60.77;35.20;;;7.10;99.90;;;;;;5033226;28;20640;-69
2022/01/23 03:03:10;;;;;;;56.07;35.53;;;7.10;99.90;;;;;;5033388;28;20640;-69
2022/01/23 03:05:39;;;;;;;59.63;35.40;;;7.20;99.90;;;;;;5033165;28;20227;-69
2022/01/23 03:08:25;;;;;;;56.60;33.67;;;7.20;99.90;;;;;;5032801;28;20232;-69
2022/01/23 03:11:04;;;;;;;54.23;33.30;;;7.20;99.90;;;;;;5033192;28;20184;-70
2022/01/23 03:13:48;;;;;;;55.83;33.67;;;7.20;99.90;;;;;;5032605;28;20223;-69
2022/01/23 03:24:07;;;;;;;57.17;34.20;;;7.10;99.90;;;;;;5032984;28;20268;-69
2022/01/23 03:29:28;;;;;;;56.90;34.17;;;7.50;99.90;;;;;;5034513;28;20205;-69
2022/01/23 03:34:26;;;;;;;55.70;34.93;;;7.50;99.90;;;;;;5036895;28;20181;-69
2022/01/23 03:36:54;;;;;;;55.60;34.53;;;7.50;99.90;;;;;;5036690;28;20261;-69
2022/01/23 03:39:20;;;;;;;56.63;35.13;;;7.50;99.90;;;;;;5036820;28;20184;-69
2022/01/23 03:41:46;;;;;;;56.50;34.70;;;7.50;99.90;;;;;;5036306;28;20185;-69
2022/01/23 03:44:15;;;;;;;54.83;34.20;;;7.40;99.90;;;;;;5036942;28;20236;-69
2022/01/23 03:47:12;;;;;;;59.00;33.60;;;7.40;99.90;;;;;;5036826;28;20253;-68
2022/01/23 03:49:33;;;;;;;58.97;35.30;;;7.40;99.90;;;;;;5036436;28;20213;-68
2022/01/23 03:52:04;;;;;;;59.27;36.03;;;7.40;99.90;;;;;;5035331;28;20184;-69
2022/01/23 03:54:30;;;;;;;60.27;36.83;;;7.40;99.90;;;;;;5036463;28;20264;-69
2022/01/23 03:56:58;;;;;;;60.73;35.67;;;7.40;99.90;;;;;;5034679;28;20170;-69
2022/01/23 03:59:24;;;;;;;64.77;36.73;;;7.30;99.90;;;;;;5036255;28;20182;-68
2022/01/23 04:01:50;;;;;;;65.07;36.37;;;7.40;99.90;;;;;;5036639;28;20228;-68
2022/01/23 04:04:34;;;;;;;59.30;36.00;;;7.40;99.90;;;;;;5036342;28;20174;-69
2022/01/23 04:07:00;;;;;;;59.17;36.90;;;7.40;99.90;;;;;;5036169;28;20257;-68
2022/01/23 04:09:26;;;;;;;62.30;36.57;;;7.40;99.90;;;;;;5036014;28;20549;-69
2022/01/23 04:11:52;;;;;;;60.53;37.50;;;7.50;99.90;;;;;;5035861;28;20194;-70
2022/01/23 04:14:20;;;;;;;61.97;37.37;;;7.60;99.90;;;;;;5036276;28;20189;-69
2022/01/23 04:35:44;;;;;;;58.70;36.37;;;7.30;99.90;;;;;;5035644;28;20181;-69
2022/01/23 04:59:37;;;;;;;64.23;36.70;;;7.70;99.90;;;;;;5035276;28;20224;-69
2022/01/23 05:04:36;;;;;;;62.47;37.43;;;7.80;99.90;;;;;;5035400;28;20668;-68
2022/01/23 05:07:08;;;;;;;59.33;37.07;;;7.90;99.90;;;;;;5034849;28;20182;-69
2022/01/23 05:09:34;;;;;;;62.47;37.60;;;7.90;99.90;;;;;;5034684;28;20209;-69
2022/01/23 05:12:03;;;;;;;61.20;36.80;;;7.90;99.90;;;;;;5034921;28;20228;-68
2022/01/23 05:14:39;;;;;;;61.10;36.93;;;7.80;99.90;;;;;;5034474;28;20181;-68
2022/01/23 05:17:10;;;;;;;58.50;36.17;;;7.80;99.90;;;;;;5034590;28;20166;-69
2022/01/23 05:19:38;;;;;;;64.17;37.30;;;7.70;99.90;;;;;;5035329;28;20182;-69
2022/01/23 05:27:34;;;;;;;64.77;36.10;;;7.90;99.90;;;;;;5032111;28;20696;-69
2022/01/23 05:30:00;;;;;;;60.77;35.87;;;7.80;99.90;;;;;;5032554;28;20305;-69
2022/01/23 05:32:32;;;;;;;57.90;36.97;;;7.80;99.90;;;;;;5032494;28;20178;-68
2022/01/23 05:34:58;;;;;;;58.47;35.57;;;7.70;99.90;;;;;;5032495;28;20196;-69
2022/01/23 05:37:24;;;;;;;65.53;37.27;;;7.50;99.90;;;;;;5031686;28;20170;-69
2022/01/23 05:39:49;;;;;;;60.87;36.13;;;7.70;99.90;;;;;;5032339;28;20193;-69
2022/01/23 05:42:15;;;;;;;67.33;37.60;;;7.70;99.90;;;;;;5032287;28;20202;-69
2022/01/23 05:44:42;;;;;;;63.13;37.30;;;7.80;99.90;;;;;;5032040;28;20206;-69
2022/01/23 05:47:09;;;;;;;57.37;36.73;;;7.70;99.90;;;;;;5031965;28;20192;-69
2022/01/23 05:49:35;;;;;;;59.60;35.90;;;7.70;99.90;;;;;;5031679;28;20221;-69
2022/01/23 05:52:02;;;;;;;58.17;36.43;;;7.80;99.90;;;;;;5030660;28;20186;-69
2022/01/23 05:54:27;;;;;;;60.30;36.57;;;7.80;99.90;;;;;;5032000;28;20182;-68
2022/01/23 05:56:53;;;;;;;59.07;36.30;;;7.70;99.90;;;;;;5031365;28;20250;-69
2022/01/23 05:59:22;;;;;;;59.07;35.67;;;7.60;99.90;;;;;;5033184;28;20613;-69
2022/01/23 06:01:52;;;;;;;63.17;36.70;;;7.40;99.90;;;;;;5034171;28;20181;-68
2022/01/23 06:04:21;;;;;;;60.50;34.77;;;7.20;99.90;;;;;;5033784;28;20166;-69
2022/01/23 06:06:47;;;;;;;60.27;35.70;;;7.40;99.90;;;;;;5033322;28;20744;-69
2022/01/23 06:09:13;;;;;;;62.90;36.87;;;7.50;99.90;;;;;;5033793;28;20210;-69
2022/01/23 06:11:39;;;;;;;62.50;36.70;;;7.60;99.90;;;;;;5033471;28;20182;-68
2022/01/23 06:14:06;;;;;;;58.80;35.87;;;7.60;99.90;;;;;;5033776;28;20181;-69
2022/01/23 06:16:32;;;;;;;56.77;35.73;;;7.60;99.90;;;;;;5033407;28;20178;-69
2022/01/23 06:18:58;;;;;;;60.90;35.73;;;7.60;99.90;;;;;;5033660;28;20181;-69
2022/01/23 06:21:25;;;;;;;61.00;36.70;;;7.60;99.90;;;;;;5032932;28;20162;-70
2022/01/23 06:24:01;;;;;;;60.20;36.93;;;7.80;99.90;;;;;;5033631;28;20189;-68
2022/01/23 06:26:38;;;;;;;56.97;34.90;;;7.80;99.90;;;;;;5033081;28;20739;-69
2022/01/23 06:29:04;;;;;;;59.97;36.37;;;7.70;99.90;;;;;;5033312;28;20221;-69
2022/01/23 06:31:31;;;;;;;59.27;36.70;;;7.80;99.90;;;;;;5033393;28;20634;-70
2022/01/23 06:33:58;;;;;;;60.13;36.40;;;7.90;99.90;;;;;;5033599;28;20170;-69
2022/01/23 06:36:23;;;;;;;59.50;35.53;;;7.80;99.90;;;;;;5032754;28;20176;-69
2022/01/23 06:38:49;;;;;;;61.83;36.47;;;7.70;99.90;;;;;;5033370;28;20182;-70
2022/01/23 06:41:15;;;;;;;61.93;34.50;;;7.60;99.90;;;;;;5033260;28;20265;-69
2022/01/23 06:43:40;;;;;;;60.47;36.27;;;7.70;99.90;;;;;;5033329;28;20169;-70
2022/01/23 06:46:06;;;;;;;63.43;37.43;;;7.80;99.90;;;;;;5032058;28;20173;-70
2022/01/23 06:48:31;;;;;;;61.33;36.00;;;7.80;99.90;;;;;;5032500;28;20679;-69
2022/01/23 06:50:57;;;;;;;60.33;35.77;;;7.90;99.90;;;;;;5032576;28;20174;-68
2022/01/23 06:53:23;;;;;;;62.53;37.77;;;8.00;99.90;;;;;;5033339;28;20177;-70
2022/01/23 06:55:48;;;;;;;57.03;35.63;;;7.90;99.90;;;;;;5032937;28;20166;-69
2022/01/23 06:58:14;;;;;;;61.83;36.80;;;7.80;99.90;;;;;;5032464;28;20174;-68
2022/01/23 07:00:40;;;;;;;60.87;35.17;;;7.90;99.90;;;;;;5032995;28;20173;-69
2022/01/23 07:03:05;;;;;;;62.83;34.73;;;7.70;99.90;;;;;;5032944;28;20529;-68
2022/01/23 07:05:31;;;;;;;60.83;35.10;;;7.60;99.90;;;;;;5032347;28;20223;-69
2022/01/23 07:07:56;;;;;;;56.37;33.33;;;7.60;99.90;;;;;;5032737;28;20193;-69
2022/01/23 07:10:24;;;;;;;55.27;33.07;;;7.60;99.90;;;;;;5031581;28;20170;-68
2022/01/23 07:12:49;;;;;;;27.63;19.47;;;7.50;99.90;;;;;;5032593;28;20170;-69
2022/01/23 07:15:15;;;;;;;27.40;18.50;;;7.50;99.90;;;;;;5032934;28;20637;-68
2022/01/23 07:17:41;;;;;;;26.80;18.57;;;7.40;99.90;;;;;;5032435;28;20182;-68
2022/01/23 07:20:08;;;;;;;28.37;19.60;;;7.50;99.90;;;;;;5032366;28;20208;-69
2022/01/23 07:22:33;;;;;;;56.70;32.70;;;7.50;99.90;;;;;;5032635;28;20220;-69
2022/01/23 07:25:01;;;;;;;50.70;31.30;;;7.30;99.90;;;;;;5031182;28;20174;-69
2022/01/23 07:27:30;;;;;;;24.37;17.23;;;7.40;99.90;;;;;;5032525;28;20236;-69
2022/01/23 07:29:56;;;;;;;43.20;27.60;;;7.30;99.90;;;;;;5032650;28;20217;-69
2022/01/23 07:32:22;;;;;;;45.10;27.90;;;7.40;99.90;;;;;;5032698;28;20257;-68
2022/01/23 07:34:47;;;;;;;41.80;26.27;;;7.40;99.90;;;;;;5032444;28;20694;-69
2022/01/23 07:37:14;;;;;;;40.83;27.10;;;7.50;99.90;;;;;;5032382;28;20181;-68
2022/01/23 07:39:40;;;;;;;46.97;31.10;;;7.50;99.90;;;;;;5032814;28;20186;-69
2022/01/23 07:42:07;;;;;;;45.57;28.80;;;7.60;99.90;;;;;;5032813;28;20614;-69
2022/01/23 07:44:32;;;;;;;52.27;31.87;;;7.50;99.90;;;;;;5032430;28;20546;-69
2022/01/23 07:46:58;;;;;;;39.80;26.87;;;7.60;99.90;;;;;;5031571;28;20190;-69
2022/01/23 07:49:23;;;;;;;29.20;19.77;;;7.70;99.90;;;;;;5030532;28;20239;-69
2022/01/23 07:51:51;;;;;;;30.07;21.37;;;7.80;99.90;;;;;;5031422;28;20193;-69
2022/01/23 07:54:17;;;;;;;37.80;25.23;;;7.80;99.90;;;;;;5032493;28;20184;-69
2022/01/23 07:56:43;;;;;;;37.83;25.60;;;7.60;99.90;;;;;;5032334;28;20174;-70
2022/01/23 07:59:11;;;;;;;41.97;26.13;;;7.70;99.90;;;;;;5032163;28;20174;-69
2022/01/23 08:01:40;;;;;;;45.10;28.97;;;7.70;99.90;;;;;;5032250;28;20166;-69
2022/01/23 08:04:08;;;;;;;46.90;28.63;;;7.70;99.90;;;;;;5032145;28;20198;-69
2022/01/23 08:06:43;;;;;;;43.33;28.03;;;7.80;99.90;;;;;;5032090;28;20170;-69
2022/01/23 08:09:09;;;;;;;46.77;30.13;;;7.80;99.90;;;;;;5032501;28;20246;-69
2022/01/23 08:11:35;;;;;;;48.40;30.87;;;7.60;99.90;;;;;;5032099;28;20181;-69
2022/01/23 08:14:01;;;;;;;35.40;24.10;;;7.50;99.90;;;;;;5032351;28;20174;-69
2022/01/23 08:16:26;;;;;;;37.37;25.80;;;7.40;99.90;;;;;;5035217;28;20687;-70
2022/01/23 08:18:52;;;;;;;41.43;26.53;;;7.40;99.90;;;;;;5035931;28;20185;-69
2022/01/23 08:21:17;;;;;;;35.37;24.93;;;7.40;99.90;;;;;;5035731;28;20174;-69
2022/01/23 08:23:43;;;;;;;43.00;26.90;;;7.20;99.90;;;;;;5035394;28;20200;-69
2022/01/23 08:26:09;;;;;;;34.60;23.07;;;7.20;99.90;;;;;;5035356;28;20536;-71
2022/01/23 08:28:35;;;;;;;40.93;26.30;;;7.30;99.90;;;;;;5035533;28;20750;-70
2022/01/23 08:31:00;;;;;;;36.63;23.90;;;7.30;99.90;;;;;;5035528;28;20193;-69
2022/01/23 08:33:27;;;;;;;41.33;28.07;;;7.50;99.90;;;;;;5035484;28;20184;-69
2022/01/23 08:35:56;;;;;;;31.53;20.17;;;7.50;99.90;;;;;;5035474;28;20162;-69
2022/01/23 08:38:22;;;;;;;43.83;27.20;;;7.50;99.90;;;;;;5035017;28;20182;-69
2022/01/23 08:41:49;;;;;;;41.30;26.00;;;7.70;99.90;;;;;;5034937;28;20185;-70
2022/01/23 08:43:33;;;;;;;49.87;31.00;;;7.80;99.90;;;;;;5034760;28;20235;-68
2022/01/23 08:45:59;;;;;;;48.10;32.20;;;8.00;99.90;;;;;;5035050;28;20268;-68
2022/01/23 08:48:24;;;;;;;35.83;23.33;;;8.00;99.90;;;;;;5034892;28;20217;-69
2022/01/23 08:50:50;;;;;;;24.63;16.63;;;8.10;99.90;;;;;;5035058;28;20170;-68
2022/01/23 08:53:16;;;;;;;23.07;16.43;;;8.00;99.90;;;;;;5035010;28;20181;-69
2022/01/23 08:55:41;;;;;;;18.30;13.63;;;8.00;99.90;;;;;;5035155;28;20240;-70
2022/01/23 08:58:07;;;;;;;16.37;11.90;;;8.00;99.90;;;;;;5034461;28;20257;-69
2022/01/23 09:00:32;;;;;;;19.40;14.43;;;8.10;99.90;;;;;;5034399;28;20190;-69
2022/01/23 09:02:58;;;;;;;40.77;26.63;;;8.30;99.90;;;;;;5035316;28;20177;-70
2022/01/23 09:05:26;;;;;;;48.30;30.80;;;8.20;99.90;;;;;;5034495;28;20545;-69
2022/01/23 09:07:51;;;;;;;53.43;32.67;;;8.20;99.90;;;;;;5034138;28;20189;-69
2022/01/23 09:10:25;;;;;;;51.73;31.53;;;8.30;99.90;;;;;;5034767;28;20178;-70
2022/01/23 09:15:23;;;;;;;51.40;30.33;;;8.40;99.90;;;;;;5034390;28;20166;-69
2022/01/23 09:17:48;;;;;;;47.17;29.93;;;8.40;99.90;;;;;;5034513;28;20656;-70
2022/01/23 09:20:15;;;;;;;49.50;30.97;;;8.40;99.90;;;;;;5033520;28;20178;-69
2022/01/23 09:22:40;;;;;;;49.03;31.23;;;8.50;99.90;;;;;;5034943;28;20269;-69
2022/01/23 09:25:06;;;;;;;53.70;33.13;;;8.50;99.90;;;;;;5034347;28;20210;-69
2022/01/23 09:27:33;;;;;;;55.10;33.50;;;8.60;99.90;;;;;;5031380;28;20233;-69
2022/01/23 09:30:05;;;;;;;54.50;33.73;;;8.70;99.90;;;;;;5034170;28;20225;-70
2022/01/23 09:32:32;;;;;;;52.30;33.17;;;8.80;99.90;;;;;;5034201;28;20174;-69
2022/01/23 09:34:57;;;;;;;56.97;33.30;;;8.80;99.90;;;;;;5034503;28;20235;-70
2022/01/23 09:37:23;;;;;;;53.20;34.53;;;8.70;99.90;;;;;;5032700;28;20268;-69
2022/01/23 09:39:49;;;;;;;55.53;35.43;;;8.60;99.90;;;;;;5032409;28;20181;-71
2022/01/23 09:42:18;;;;;;;51.93;34.23;;;8.30;99.90;;;;;;5033826;28;20170;-69
2022/01/23 09:44:52;;;;;;;54.60;35.13;;;8.30;99.90;;;;;;5033679;28;20190;-69
2022/01/23 09:47:20;;;;;;;53.20;32.00;;;8.30;99.90;;;;;;5033938;28;20308;-69
2022/01/23 09:49:46;;;;;;;50.77;32.87;;;8.30;99.90;;;;;;5033390;28;20237;-69
2022/01/23 09:52:14;;;;;;;53.50;33.50;;;8.40;99.90;;;;;;5034021;28;20201;-69
2022/01/23 09:54:44;;;;;;;55.03;34.33;;;8.40;99.90;;;;;;5033986;28;20211;-69
2022/01/23 09:57:11;;;;;;;58.97;36.27;;;8.40;99.90;;;;;;5032949;28;20166;-70
2022/01/23 09:59:39;;;;;;;55.70;34.87;;;8.40;99.90;;;;;;5033020;28;20232;-69
2022/01/23 10:02:05;;;;;;;57.40;35.27;;;8.60;99.90;;;;;;5033416;28;20181;-69
2022/01/23 10:04:31;;;;;;;55.57;34.67;;;8.60;99.90;;;;;;5033493;28;20280;-69
2022/01/23 10:06:57;;;;;;;43.77;30.13;;;8.50;99.90;;;;;;5031462;28;20511;-69
2022/01/23 10:09:25;;;;;;;31.17;21.03;;;8.50;99.90;;;;;;5032604;28;20210;-69
2022/01/23 10:11:52;;;;;;;24.23;17.67;;;8.40;99.90;;;;;;5032687;28;20181;-69
2022/01/23 10:14:19;;;;;;;23.43;16.90;;;8.40;99.90;;;;;;5032599;28;20177;-70
2022/01/23 10:16:48;;;;;;;24.90;17.03;;;8.40;99.90;;;;;;5033212;28;20173;-70
2022/01/23 10:19:15;;;;;;;23.67;16.80;;;8.40;99.90;;;;;;5033291;28;20270;-70
2022/01/23 10:21:43;;;;;;;19.37;15.27;;;8.40;99.90;;;;;;5033315;28;20177;-69
2022/01/23 10:24:11;;;;;;;18.70;15.67;;;8.40;99.90;;;;;;5033565;28;20185;-70
2022/01/23 10:26:52;;;;;;;19.20;13.90;;;8.30;99.90;;;;;;5032028;28;20264;-69
2022/01/23 10:29:22;;;;;;;13.67;10.57;;;8.30;99.90;;;;;;5032680;28;20217;-69
2022/01/23 10:32:20;;;;;;;15.37;11.00;;;8.30;99.90;;;;;;5033365;28;20257;-69
2022/01/23 10:34:57;;;;;;;18.40;13.40;;;8.20;99.90;;;;;;5033240;28;20170;-69
2022/01/23 10:37:42;;;;;;;18.23;14.10;;;8.20;99.90;;;;;;5032701;28;20173;-69
2022/01/23 10:40:24;;;;;;;14.87;12.70;;;8.30;99.90;;;;;;5032687;28;20213;-69
2022/01/23 10:48:34;;;;;;;26.73;18.67;;;8.40;99.90;;;;;;5031923;28;20220;-69
2022/01/23 10:51:17;;;;;;;69.63;49.47;;;8.40;99.90;;;;;;5032655;28;20189;-69
2022/01/23 10:54:02;;;;;;;13.67;10.67;;;8.40;99.90;;;;;;5032681;28;20178;-69
2022/01/23 10:56:30;;;;;;;17.23;13.87;;;8.20;99.90;;;;;;5031934;28;20170;-69
2022/01/23 10:59:10;;;;;;;14.93;12.43;;;8.20;99.90;;;;;;5032477;28;20162;-69
2022/01/23 11:01:57;;;;;;;20.33;15.10;;;8.00;99.90;;;;;;5032774;28;20162;-69
2022/01/23 11:04:23;;;;;;;14.67;13.20;;;8.10;99.90;;;;;;5032087;28;20178;-68
2022/01/23 11:07:04;;;;;;;8.80;7.10;;;8.00;99.90;;;;;;5032737;28;20170;-68
2022/01/23 11:09:37;;;;;;;10.17;8.23;;;8.00;99.90;;;;;;5031966;28;20738;-69
2022/01/23 11:12:23;;;;;;;13.53;9.97;;;8.20;99.90;;;;;;5032118;28;20247;-69
2022/01/23 11:17:59;;;;;;;15.53;11.80;;;8.20;99.90;;;;;;5031232;28;20582;-69
2022/01/23 11:20:47;;;;;;;16.33;12.53;;;8.20;99.90;;;;;;5031461;28;20220;-70
2022/01/23 11:23:27;;;;;;;14.67;12.43;;;8.20;99.90;;;;;;5032580;28;20181;-70
2022/01/23 11:25:52;;;;;;;20.60;18.40;;;8.20;99.90;;;;;;5032235;28;20200;-70
2022/01/23 11:28:19;;;;;;;18.40;13.97;;;8.20;99.90;;;;;;5032319;28;20693;-69
2022/01/23 11:30:48;;;;;;;13.60;11.50;;;8.20;99.90;;;;;;5032305;28;20696;-70
2022/01/23 11:33:19;;;;;;;11.83;9.40;;;8.10;99.90;;;;;;5032489;28;20219;-68
2022/01/23 11:35:48;;;;;;;11.80;9.73;;;8.10;99.90;;;;;;5032278;28;20174;-70
2022/01/23 11:38:18;;;;;;;9.23;7.70;;;8.20;99.90;;;;;;5032175;28;20180;-70
2022/01/23 11:54:46;;;;;;;37.83;28.33;;;8.30;99.90;;;;;;5035826;28;20184;-69
2022/01/23 11:57:36;;;;;;;27.10;19.13;;;8.40;99.90;;;;;;5035207;28;20325;-71
2022/01/23 12:00:08;;;;;;;36.73;22.30;;;8.50;99.90;;;;;;5035794;28;20162;-71
2022/01/23 12:02:39;;;;;;;16.47;12.83;;;8.60;99.90;;;;;;5036412;28;20243;-71
2022/01/23 12:05:21;;;;;;;18.70;12.60;;;8.50;99.90;;;;;;5035653;28;20307;-71
2022/01/23 12:08:15;;;;;;;18.27;13.10;;;8.40;99.90;;;;;;5035757;28;20170;-69
2022/01/23 12:11:04;;;;;;;20.40;13.73;;;8.50;99.90;;;;;;5034688;28;20265;-69
2022/01/23 12:16:24;;;;;;;47.07;34.63;;;8.30;99.90;;;;;;5035978;28;20524;-70
2022/01/23 12:18:51;;;;;;;12.87;10.97;;;8.40;99.90;;;;;;5035351;28;20189;-70
2022/01/23 12:21:31;;;;;;;31.23;21.90;;;8.30;99.90;;;;;;5035334;28;20181;-69
2022/01/23 12:23:58;;;;;;;27.83;20.97;;;8.30;99.90;;;;;;5034861;28;20166;-69
2022/01/23 12:26:24;;;;;;;15.00;11.43;;;8.30;99.90;;;;;;5035276;28;20568;-69
2022/01/23 12:28:50;;;;;;;26.37;19.83;;;8.40;99.90;;;;;;5035627;28;20221;-69
2022/01/23 12:31:21;;;;;;;16.57;13.27;;;8.50;99.90;;;;;;5035102;28;20660;-70
2022/01/23 12:33:49;;;;;;;11.57;8.63;;;8.50;99.90;;;;;;5035676;28;20269;-69
2022/01/23 12:36:15;;;;;;;14.53;11.10;;;8.20;99.90;;;;;;5034879;28;20178;-69
2022/01/23 12:38:47;;;;;;;15.73;12.00;;;8.30;99.90;;;;;;5034702;28;20177;-69
2022/01/23 12:41:23;;;;;;;16.80;12.53;;;8.40;99.90;;;;;;5035356;28;20765;-69
2022/01/23 12:44:09;;;;;;;17.67;13.70;;;8.30;99.90;;;;;;5035341;28;20181;-70
2022/01/23 12:46:40;;;;;;;14.10;11.73;;;8.30;99.90;;;;;;5034336;28;20251;-70
2022/01/23 12:49:26;;;;;;;14.57;9.80;;;8.20;99.90;;;;;;5034940;28;20263;-69
2022/01/23 12:52:13;;;;;;;10.87;6.70;;;8.10;99.90;;;;;;5034708;28;20173;-68
2022/01/23 12:54:48;;;;;;;11.60;8.97;;;8.00;99.90;;;;;;5033869;28;20792;-69
2022/01/23 12:57:39;;;;;;;13.77;10.03;;;8.00;99.90;;;;;;5034686;28;20252;-69
2022/01/23 13:00:23;;;;;;;17.23;11.57;;;8.00;99.90;;;;;;5034614;28;20646;-69
2022/01/23 13:02:52;;;;;;;19.20;11.73;;;7.90;99.90;;;;;;5035134;28;20178;-69
2022/01/23 13:05:18;;;;;;;10.00;8.07;;;7.90;99.90;;;;;;5034241;28;20162;-70
2022/01/23 13:16:03;;;;;;;13.90;10.37;;;8.00;99.90;;;;;;5034427;28;20666;-69
2022/01/23 13:32:45;;;;;;;18.73;13.50;;;8.10;99.90;;;;;;5034467;28;20233;-69
2022/01/23 13:35:11;;;;;;;13.93;10.40;;;8.10;99.90;;;;;;5033913;28;20186;-69
2022/01/23 13:37:43;;;;;;;21.70;14.73;;;8.10;99.90;;;;;;5032466;28;20316;-69
2022/01/23 13:40:12;;;;;;;20.43;13.47;;;8.30;99.90;;;;;;5034161;28;20170;-69
2022/01/23 13:59:12;;;;;;;20.80;13.33;;;7.70;99.90;;;;;;5033367;28;20185;-69
2022/01/23 14:04:23;;;;;;;21.17;14.47;;;7.70;99.90;;;;;;5033616;28;20197;-69
2022/01/23 14:06:49;;;;;;;23.20;15.13;;;7.80;99.90;;;;;;5033118;28;20641;-69
2022/01/23 14:09:16;;;;;;;23.67;14.50;;;7.90;99.90;;;;;;5033126;28;20209;-69
2022/01/23 14:11:42;;;;;;;13.13;7.87;;;8.10;99.90;;;;;;5033641;28;20185;-69
2022/01/23 14:14:13;;;;;;;20.03;13.53;;;7.90;99.90;;;;;;5032784;28;20178;-69
2022/01/23 14:16:40;;;;;;;20.90;14.40;;;7.50;99.90;;;;;;5031628;28;20190;-70
2022/01/23 14:19:32;;;;;;;27.10;17.50;;;7.60;99.90;;;;;;5033070;28;20174;-70
2022/01/23 14:22:00;;;;;;;27.50;17.27;;;7.60;99.90;;;;;;5033228;28;20182;-69
2022/01/23 14:24:28;;;;;;;18.07;12.97;;;7.70;99.90;;;;;;5033118;28;20178;-69
2022/01/23 14:27:06;;;;;;;22.27;14.83;;;7.60;99.90;;;;;;5032504;28;20229;-70
2022/01/23 14:29:46;;;;;;;19.53;13.97;;;7.70;99.90;;;;;;5032973;28;20209;-69
2022/01/23 14:32:39;;;;;;;25.63;18.87;;;7.70;99.90;;;;;;5033455;28;20170;-69
2022/01/23 14:35:19;;;;;;;34.13;23.60;;;7.60;99.90;;;;;;5032635;28;20645;-69
2022/01/23 14:37:46;;;;;;;21.17;13.57;;;7.60;99.90;;;;;;5032924;28;20177;-69
2022/01/23 14:40:12;;;;;;;18.00;13.70;;;7.60;99.90;;;;;;5031682;28;20187;-69
2022/01/23 14:42:37;;;;;;;23.10;16.07;;;7.60;99.90;;;;;;5032971;28;20205;-69
2022/01/23 14:45:08;;;;;;;25.33;15.67;;;7.60;99.90;;;;;;5033221;28;20676;-70
2022/01/23 14:47:38;;;;;;;21.03;14.20;;;7.60;99.90;;;;;;5032101;28;20177;-69
2022/01/23 14:50:12;;;;;;;25.23;17.03;;;7.60;99.90;;;;;;5032097;28;20364;-70
2022/01/23 14:52:40;;;;;;;29.73;19.47;;;7.70;99.90;;;;;;5032700;28;20177;-70
2022/01/23 14:55:08;;;;;;;32.17;21.93;;;7.80;99.90;;;;;;5032552;28;20637;-70
2022/01/23 14:57:34;;;;;;;29.63;19.97;;;7.90;99.90;;;;;;5032747;28;20275;-70
2022/01/23 15:00:01;;;;;;;29.93;20.60;;;7.80;99.90;;;;;;5032525;28;20253;-70
2022/01/23 15:02:27;;;;;;;31.77;19.37;;;7.90;99.90;;;;;;5032065;28;20182;-69
2022/01/23 15:04:52;;;;;;;27.43;17.87;;;7.80;99.90;;;;;;5032566;28;20181;-69
2022/01/23 15:07:18;;;;;;;30.20;18.73;;;7.50;99.90;;;;;;5032677;28;20220;-70
2022/01/23 15:09:50;;;;;;;25.20;17.03;;;7.50;99.90;;;;;;5031948;28;20327;-70
2022/01/23 15:12:17;;;;;;;34.43;21.00;;;7.40;99.90;;;;;;5032285;28;20208;-69
2022/01/23 15:14:43;;;;;;;26.03;17.13;;;7.50;99.90;;;;;;5032897;28;20165;-70
2022/01/23 15:17:09;;;;;;;26.83;17.20;;;7.40;99.90;;;;;;5031894;28;20180;-70
2022/01/23 15:19:35;;;;;;;32.10;18.93;;;7.20;99.90;;;;;;5032423;28;20253;-70
2022/01/23 15:22:02;;;;;;;25.67;17.53;;;7.20;99.90;;;;;;5032700;28;20166;-70
2022/01/23 15:24:28;;;;;;;33.40;18.10;;;7.30;99.90;;;;;;5032361;28;20210;-69
2022/01/23 15:26:54;;;;;;;15.77;10.43;;;7.20;99.90;;;;;;5036201;28;20276;-70
2022/01/23 15:29:19;;;;;;;17.47;12.97;;;7.20;99.90;;;;;;5036254;28;20327;-70
2022/01/23 15:31:47;;;;;;;13.87;10.03;;;7.10;99.90;;;;;;5036370;28;20219;-69
2022/01/23 15:34:15;;;;;;;16.70;11.40;;;7.10;99.90;;;;;;5036794;28;20182;-71
2022/01/23 15:36:42;;;;;;;14.13;10.17;;;7.10;99.90;;;;;;5036450;28;20186;-69
2022/01/23 15:39:07;;;;;;;22.73;14.70;;;7.10;99.90;;;;;;5036617;28;20214;-69
2022/01/23 15:41:34;;;;;;;20.17;14.13;;;7.10;99.90;;;;;;5035643;28;20188;-70
2022/01/23 15:43:59;;;;;;;18.80;12.73;;;7.20;99.90;;;;;;5036193;28;20695;-70
2022/01/23 15:46:26;;;;;;;19.67;13.73;;;7.20;99.90;;;;;;5036081;28;20177;-70
2022/01/23 15:48:51;;;;;;;14.53;10.20;;;7.30;99.90;;;;;;5035932;28;20210;-69
2022/01/23 15:51:17;;;;;;;19.43;11.10;;;7.30;99.90;;;;;;5036157;28;20513;-69
2022/01/23 15:53:43;;;;;;;14.20;8.77;;;7.10;99.90;;;;;;5036119;28;20174;-69
2022/01/23 15:56:09;;;;;;;10.80;8.33;;;7.00;99.90;;;;;;5035765;28;20177;-69
2022/01/23 15:58:34;;;;;;;21.80;13.10;;;7.00;99.90;;;;;;5035828;28;20173;-70
2022/01/23 16:01:00;;;;;;;21.87;14.33;;;7.00;99.90;;;;;;5035296;28;20646;-69
2022/01/23 16:03:27;;;;;;;20.93;15.07;;;7.00;99.90;;;;;;5036292;28;20220;-69
2022/01/23 16:05:54;;;;;;;26.70;17.57;;;7.10;99.90;;;;;;5035887;28;20170;-69
2022/01/23 16:08:20;;;;;;;18.93;12.60;;;7.10;99.90;;;;;;5035650;28;20206;-69